sensor_id;sensor_type;location;lat;lon;timestamp;P1;durP1;ratioP1;P2;durP2;ratioP2
15358;SDS011;7779;49.596;11.070;2023-07-09T00:02:01;4.63;;;4.03;;
15358;SDS011;7779;49.596;11.070;2023-07-09T00:04:27;5.00;;;4.27;;
15358;SDS011;7779;49.596;11.070;2023-07-09T00:06:54;4.53;;;4.10;;
15358;SDS011;7779;49.596;11.070;2023-07-09T00:09:25;5.37;;;4.03;;
15358;SDS011;7779;49.596;11.070;2023-07-09T00:11:51;5.20;;;4.30;;
15358;SDS011;7779;49.596;11.070;2023-07-09T00:14:17;7.43;;;4.33;;
15358;SDS011;7779;49.596;11.070;2023-07-09T00:16:43;6.20;;;4.07;;
15358;SDS011;7779;49.596;11.070;2023-07-09T00:19:13;5.13;;;4.30;;
15358;SDS011;7779;49.596;11.070;2023-07-09T00:21:44;4.57;;;4.17;;
15358;SDS011;7779;49.596;11.070;2023-07-09T00:24:18;6.63;;;4.80;;
15358;SDS011;7779;49.596;11.070;2023-07-09T00:26:44;5.10;;;4.20;;
15358;SDS011;7779;49.596;11.070;2023-07-09T00:29:13;5.90;;;4.07;;
15358;SDS011;7779;49.596;11.070;2023-07-09T00:31:42;4.37;;;3.97;;
15358;SDS011;7779;49.596;11.070;2023-07-09T00:34:13;5.30;;;4.20;;
15358;SDS011;7779;49.596;11.070;2023-07-09T00:36:42;4.60;;;4.20;;
15358;SDS011;7779;49.596;11.070;2023-07-09T00:39:16;4.70;;;4.07;;
15358;SDS011;7779;49.596;11.070;2023-07-09T00:41:43;6.63;;;4.43;;
15358;SDS011;7779;49.596;11.070;2023-07-09T00:49:14;5.30;;;4.50;;
15358;SDS011;7779;49.596;11.070;2023-07-09T00:51:52;5.90;;;4.20;;
15358;SDS011;7779;49.596;11.070;2023-07-09T00:54:24;5.57;;;4.30;;
15358;SDS011;7779;49.596;11.070;2023-07-09T00:56:55;4.73;;;4.27;;
15358;SDS011;7779;49.596;11.070;2023-07-09T00:59:26;5.00;;;4.33;;
15358;SDS011;7779;49.596;11.070;2023-07-09T01:01:57;5.17;;;4.00;;
15358;SDS011;7779;49.596;11.070;2023-07-09T01:04:25;5.77;;;4.70;;
15358;SDS011;7779;49.596;11.070;2023-07-09T01:06:54;6.50;;;4.57;;
15358;SDS011;7779;49.596;11.070;2023-07-09T01:09:22;5.13;;;4.17;;
15358;SDS011;7779;49.596;11.070;2023-07-09T01:11:49;4.37;;;3.97;;
15358;SDS011;7779;49.596;11.070;2023-07-09T01:14:16;5.30;;;4.20;;
15358;SDS011;7779;49.596;11.070;2023-07-09T01:16:48;4.90;;;4.40;;
15358;SDS011;7779;49.596;11.070;2023-07-09T01:19:22;4.53;;;4.10;;
15358;SDS011;7779;49.596;11.070;2023-07-09T01:21:54;5.30;;;4.60;;
15358;SDS011;7779;49.596;11.070;2023-07-09T01:27:18;4.17;;;3.70;;
15358;SDS011;7779;49.596;11.070;2023-07-09T01:29:52;4.40;;;4.00;;
15358;SDS011;7779;49.596;11.070;2023-07-09T01:32:21;4.70;;;4.17;;
15358;SDS011;7779;49.596;11.070;2023-07-09T01:34:49;5.03;;;4.53;;
15358;SDS011;7779;49.596;11.070;2023-07-09T01:37:22;4.30;;;3.90;;
15358;SDS011;7779;49.596;11.070;2023-07-09T01:39:52;5.03;;;4.37;;
15358;SDS011;7779;49.596;11.070;2023-07-09T01:42:20;4.90;;;4.13;;
15358;SDS011;7779;49.596;11.070;2023-07-09T01:44:49;4.53;;;4.13;;
15358;SDS011;7779;49.596;11.070;2023-07-09T01:47:17;4.67;;;4.27;;
15358;SDS011;7779;49.596;11.070;2023-07-09T01:49:43;4.87;;;4.37;;
15358;SDS011;7779;49.596;11.070;2023-07-09T01:52:11;5.13;;;4.60;;
15358;SDS011;7779;49.596;11.070;2023-07-09T01:54:41;4.73;;;4.23;;
15358;SDS011;7779;49.596;11.070;2023-07-09T01:59:42;5.37;;;4.77;;
15358;SDS011;7779;49.596;11.070;2023-07-09T02:02:09;5.10;;;4.60;;
15358;SDS011;7779;49.596;11.070;2023-07-09T02:04:43;6.33;;;4.93;;
15358;SDS011;7779;49.596;11.070;2023-07-09T02:07:13;4.57;;;4.17;;
15358;SDS011;7779;49.596;11.070;2023-07-09T02:09:39;5.53;;;4.10;;
15358;SDS011;7779;49.596;11.070;2023-07-09T02:12:04;4.83;;;4.33;;
15358;SDS011;7779;49.596;11.070;2023-07-09T02:14:31;5.23;;;3.97;;
15358;SDS011;7779;49.596;11.070;2023-07-09T02:16:57;5.03;;;4.47;;
15358;SDS011;7779;49.596;11.070;2023-07-09T02:19:23;6.03;;;4.60;;
15358;SDS011;7779;49.596;11.070;2023-07-09T02:21:49;4.70;;;4.23;;
15358;SDS011;7779;49.596;11.070;2023-07-09T02:24:15;4.93;;;4.43;;
15358;SDS011;7779;49.596;11.070;2023-07-09T02:26:40;4.73;;;4.30;;
15358;SDS011;7779;49.596;11.070;2023-07-09T02:29:07;8.57;;;4.47;;
15358;SDS011;7779;49.596;11.070;2023-07-09T02:31:33;5.30;;;4.80;;
15358;SDS011;7779;49.596;11.070;2023-07-09T02:33:59;4.73;;;4.30;;
15358;SDS011;7779;49.596;11.070;2023-07-09T02:36:25;5.70;;;4.70;;
15358;SDS011;7779;49.596;11.070;2023-07-09T02:38:51;4.90;;;4.40;;
15358;SDS011;7779;49.596;11.070;2023-07-09T02:41:17;5.73;;;5.00;;
15358;SDS011;7779;49.596;11.070;2023-07-09T02:43:42;5.10;;;4.60;;
15358;SDS011;7779;49.596;11.070;2023-07-09T02:46:10;4.73;;;4.33;;
15358;SDS011;7779;49.596;11.070;2023-07-09T02:48:36;5.60;;;4.90;;
15358;SDS011;7779;49.596;11.070;2023-07-09T02:51:01;5.33;;;4.70;;
15358;SDS011;7779;49.596;11.070;2023-07-09T02:53:27;5.80;;;4.40;;
15358;SDS011;7779;49.596;11.070;2023-07-09T02:55:54;5.00;;;4.50;;
15358;SDS011;7779;49.596;11.070;2023-07-09T02:58:20;5.40;;;4.60;;
15358;SDS011;7779;49.596;11.070;2023-07-09T03:00:48;4.77;;;4.20;;
15358;SDS011;7779;49.596;11.070;2023-07-09T03:03:18;7.07;;;4.60;;
15358;SDS011;7779;49.596;11.070;2023-07-09T03:05:45;5.10;;;4.30;;
15358;SDS011;7779;49.596;11.070;2023-07-09T03:08:12;4.50;;;4.10;;
15358;SDS011;7779;49.596;11.070;2023-07-09T03:10:40;4.73;;;4.03;;
15358;SDS011;7779;49.596;11.070;2023-07-09T03:13:06;6.50;;;4.77;;
15358;SDS011;7779;49.596;11.070;2023-07-09T03:15:31;6.17;;;5.07;;
15358;SDS011;7779;49.596;11.070;2023-07-09T03:17:57;4.70;;;4.07;;
15358;SDS011;7779;49.596;11.070;2023-07-09T03:20:23;5.87;;;4.43;;
15358;SDS011;7779;49.596;11.070;2023-07-09T03:22:50;5.10;;;4.60;;
15358;SDS011;7779;49.596;11.070;2023-07-09T03:25:16;4.73;;;4.23;;
15358;SDS011;7779;49.596;11.070;2023-07-09T03:27:41;5.80;;;4.97;;
15358;SDS011;7779;49.596;11.070;2023-07-09T03:30:07;5.03;;;4.00;;
15358;SDS011;7779;49.596;11.070;2023-07-09T03:32:34;6.10;;;4.50;;
15358;SDS011;7779;49.596;11.070;2023-07-09T03:34:59;5.10;;;4.50;;
15358;SDS011;7779;49.596;11.070;2023-07-09T03:37:25;5.53;;;5.03;;
15358;SDS011;7779;49.596;11.070;2023-07-09T03:39:51;5.20;;;4.57;;
15358;SDS011;7779;49.596;11.070;2023-07-09T03:42:16;4.83;;;4.30;;
15358;SDS011;7779;49.596;11.070;2023-07-09T03:44:42;5.00;;;4.50;;
15358;SDS011;7779;49.596;11.070;2023-07-09T03:47:08;5.17;;;4.40;;
15358;SDS011;7779;49.596;11.070;2023-07-09T03:49:33;4.87;;;4.37;;
15358;SDS011;7779;49.596;11.070;2023-07-09T03:51:59;5.80;;;4.87;;
15358;SDS011;7779;49.596;11.070;2023-07-09T03:54:25;5.23;;;4.27;;
15358;SDS011;7779;49.596;11.070;2023-07-09T03:56:51;5.20;;;4.63;;
15358;SDS011;7779;49.596;11.070;2023-07-09T03:59:16;5.30;;;4.47;;
15358;SDS011;7779;49.596;11.070;2023-07-09T04:01:42;7.23;;;4.97;;
15358;SDS011;7779;49.596;11.070;2023-07-09T04:04:11;5.20;;;4.50;;
15358;SDS011;7779;49.596;11.070;2023-07-09T04:06:38;5.97;;;4.53;;
15358;SDS011;7779;49.596;11.070;2023-07-09T04:09:04;5.30;;;4.80;;
15358;SDS011;7779;49.596;11.070;2023-07-09T04:11:30;5.33;;;4.83;;
15358;SDS011;7779;49.596;11.070;2023-07-09T04:13:56;5.60;;;4.70;;
15358;SDS011;7779;49.596;11.070;2023-07-09T04:16:22;5.83;;;4.77;;
15358;SDS011;7779;49.596;11.070;2023-07-09T04:18:48;5.80;;;4.60;;
15358;SDS011;7779;49.596;11.070;2023-07-09T04:21:13;5.47;;;4.57;;
15358;SDS011;7779;49.596;11.070;2023-07-09T04:23:39;6.23;;;4.70;;
15358;SDS011;7779;49.596;11.070;2023-07-09T04:26:05;5.63;;;4.83;;
15358;SDS011;7779;49.596;11.070;2023-07-09T04:28:34;5.13;;;4.63;;
15358;SDS011;7779;49.596;11.070;2023-07-09T04:31:00;5.23;;;4.50;;
15358;SDS011;7779;49.596;11.070;2023-07-09T04:33:25;5.17;;;4.67;;
15358;SDS011;7779;49.596;11.070;2023-07-09T04:35:51;5.40;;;4.70;;
15358;SDS011;7779;49.596;11.070;2023-07-09T04:38:17;6.17;;;5.00;;
15358;SDS011;7779;49.596;11.070;2023-07-09T04:40:43;5.17;;;4.67;;
15358;SDS011;7779;49.596;11.070;2023-07-09T04:43:09;5.03;;;4.53;;
15358;SDS011;7779;49.596;11.070;2023-07-09T04:45:35;5.50;;;4.57;;
15358;SDS011;7779;49.596;11.070;2023-07-09T04:48:01;4.63;;;4.23;;
15358;SDS011;7779;49.596;11.070;2023-07-09T04:50:27;6.50;;;5.10;;
15358;SDS011;7779;49.596;11.070;2023-07-09T04:52:52;7.83;;;4.50;;
15358;SDS011;7779;49.596;11.070;2023-07-09T04:55:18;4.97;;;4.30;;
15358;SDS011;7779;49.596;11.070;2023-07-09T04:57:44;5.20;;;4.60;;
15358;SDS011;7779;49.596;11.070;2023-07-09T05:00:11;5.63;;;5.13;;
15358;SDS011;7779;49.596;11.070;2023-07-09T05:02:37;5.30;;;4.80;;
15358;SDS011;7779;49.596;11.070;2023-07-09T05:05:03;6.23;;;4.87;;
15358;SDS011;7779;49.596;11.070;2023-07-09T05:07:30;4.87;;;4.27;;
15358;SDS011;7779;49.596;11.070;2023-07-09T05:09:58;4.73;;;4.23;;
15358;SDS011;7779;49.596;11.070;2023-07-09T05:12:26;4.87;;;4.43;;
15358;SDS011;7779;49.596;11.070;2023-07-09T05:14:52;4.90;;;4.30;;
15358;SDS011;7779;49.596;11.070;2023-07-09T05:17:21;6.47;;;4.57;;
15358;SDS011;7779;49.596;11.070;2023-07-09T05:19:48;6.00;;;4.60;;
15358;SDS011;7779;49.596;11.070;2023-07-09T05:22:15;5.27;;;4.67;;
15358;SDS011;7779;49.596;11.070;2023-07-09T05:24:41;5.00;;;4.60;;
15358;SDS011;7779;49.596;11.070;2023-07-09T05:27:07;5.23;;;4.73;;
15358;SDS011;7779;49.596;11.070;2023-07-09T05:29:33;5.67;;;4.53;;
15358;SDS011;7779;49.596;11.070;2023-07-09T05:31:59;6.63;;;4.40;;
15358;SDS011;7779;49.596;11.070;2023-07-09T05:34:25;5.00;;;4.50;;
15358;SDS011;7779;49.596;11.070;2023-07-09T05:36:51;4.73;;;4.23;;
15358;SDS011;7779;49.596;11.070;2023-07-09T05:39:17;5.43;;;4.47;;
15358;SDS011;7779;49.596;11.070;2023-07-09T05:41:43;5.13;;;4.20;;
15358;SDS011;7779;49.596;11.070;2023-07-09T05:44:09;4.90;;;4.30;;
15358;SDS011;7779;49.596;11.070;2023-07-09T05:46:35;5.10;;;4.60;;
15358;SDS011;7779;49.596;11.070;2023-07-09T05:49:03;5.57;;;5.03;;
15358;SDS011;7779;49.596;11.070;2023-07-09T05:51:30;5.40;;;4.50;;
15358;SDS011;7779;49.596;11.070;2023-07-09T05:53:56;4.43;;;4.03;;
15358;SDS011;7779;49.596;11.070;2023-07-09T05:56:22;4.97;;;4.30;;
15358;SDS011;7779;49.596;11.070;2023-07-09T05:58:47;4.67;;;4.27;;
15358;SDS011;7779;49.596;11.070;2023-07-09T06:01:13;5.03;;;4.53;;
15358;SDS011;7779;49.596;11.070;2023-07-09T06:03:39;5.93;;;4.40;;
15358;SDS011;7779;49.596;11.070;2023-07-09T06:06:05;4.70;;;4.20;;
15358;SDS011;7779;49.596;11.070;2023-07-09T06:08:31;4.97;;;4.17;;
15358;SDS011;7779;49.596;11.070;2023-07-09T06:10:58;5.50;;;4.30;;
15358;SDS011;7779;49.596;11.070;2023-07-09T06:13:27;4.50;;;4.03;;
15358;SDS011;7779;49.596;11.070;2023-07-09T06:15:58;5.20;;;4.23;;
15358;SDS011;7779;49.596;11.070;2023-07-09T06:18:25;4.83;;;4.30;;
15358;SDS011;7779;49.596;11.070;2023-07-09T06:20:56;4.73;;;4.30;;
15358;SDS011;7779;49.596;11.070;2023-07-09T06:23:26;5.03;;;4.00;;
15358;SDS011;7779;49.596;11.070;2023-07-09T06:25:52;4.20;;;3.90;;
15358;SDS011;7779;49.596;11.070;2023-07-09T06:28:19;4.60;;;4.07;;
15358;SDS011;7779;49.596;11.070;2023-07-09T06:30:49;4.83;;;4.30;;
15358;SDS011;7779;49.596;11.070;2023-07-09T06:33:16;4.40;;;4.00;;
15358;SDS011;7779;49.596;11.070;2023-07-09T06:35:47;5.63;;;4.60;;
15358;SDS011;7779;49.596;11.070;2023-07-09T06:38:22;5.30;;;4.40;;
15358;SDS011;7779;49.596;11.070;2023-07-09T06:40:48;9.03;;;5.10;;
15358;SDS011;7779;49.596;11.070;2023-07-09T06:43:13;6.87;;;4.50;;
15358;SDS011;7779;49.596;11.070;2023-07-09T06:45:55;4.47;;;4.07;;
15358;SDS011;7779;49.596;11.070;2023-07-09T06:48:25;5.80;;;4.30;;
15358;SDS011;7779;49.596;11.070;2023-07-09T06:50:53;4.40;;;4.00;;
15358;SDS011;7779;49.596;11.070;2023-07-09T06:53:21;5.10;;;4.60;;
15358;SDS011;7779;49.596;11.070;2023-07-09T06:55:47;4.83;;;4.07;;
15358;SDS011;7779;49.596;11.070;2023-07-09T06:58:20;4.83;;;4.33;;
15358;SDS011;7779;49.596;11.070;2023-07-09T07:00:50;4.80;;;4.30;;
15358;SDS011;7779;49.596;11.070;2023-07-09T07:03:17;5.93;;;4.33;;
15358;SDS011;7779;49.596;11.070;2023-07-09T07:05:46;5.30;;;4.80;;
15358;SDS011;7779;49.596;11.070;2023-07-09T07:08:15;5.17;;;4.67;;
15358;SDS011;7779;49.596;11.070;2023-07-09T07:10:43;5.27;;;4.30;;
15358;SDS011;7779;49.596;11.070;2023-07-09T07:13:12;4.37;;;3.97;;
15358;SDS011;7779;49.596;11.070;2023-07-09T07:15:38;5.13;;;4.60;;
15358;SDS011;7779;49.596;11.070;2023-07-09T07:18:04;4.97;;;4.47;;
15358;SDS011;7779;49.596;11.070;2023-07-09T07:20:31;4.50;;;4.10;;
15358;SDS011;7779;49.596;11.070;2023-07-09T07:22:58;4.73;;;4.27;;
15358;SDS011;7779;49.596;11.070;2023-07-09T07:25:24;4.50;;;4.10;;
15358;SDS011;7779;49.596;11.070;2023-07-09T07:27:50;4.60;;;4.20;;
15358;SDS011;7779;49.596;11.070;2023-07-09T07:30:16;4.30;;;3.97;;
15358;SDS011;7779;49.596;11.070;2023-07-09T07:32:46;4.47;;;4.07;;
15358;SDS011;7779;49.596;11.070;2023-07-09T07:35:14;4.50;;;4.10;;
15358;SDS011;7779;49.596;11.070;2023-07-09T07:37:40;4.57;;;3.90;;
15358;SDS011;7779;49.596;11.070;2023-07-09T07:40:07;4.30;;;3.90;;
15358;SDS011;7779;49.596;11.070;2023-07-09T07:42:34;3.90;;;3.50;;
15358;SDS011;7779;49.596;11.070;2023-07-09T07:45:00;4.33;;;3.60;;
15358;SDS011;7779;49.596;11.070;2023-07-09T07:47:26;3.83;;;3.53;;
15358;SDS011;7779;49.596;11.070;2023-07-09T07:49:52;4.33;;;3.03;;
15358;SDS011;7779;49.596;11.070;2023-07-09T07:52:19;3.90;;;3.23;;
15358;SDS011;7779;49.596;11.070;2023-07-09T07:54:45;3.40;;;3.10;;
15358;SDS011;7779;49.596;11.070;2023-07-09T07:57:11;3.80;;;3.33;;
15358;SDS011;7779;49.596;11.070;2023-07-09T07:59:37;3.80;;;3.00;;
15358;SDS011;7779;49.596;11.070;2023-07-09T08:02:04;3.30;;;3.00;;
15358;SDS011;7779;49.596;11.070;2023-07-09T08:04:35;3.50;;;3.10;;
15358;SDS011;7779;49.596;11.070;2023-07-09T08:07:01;3.80;;;3.07;;
15358;SDS011;7779;49.596;11.070;2023-07-09T08:09:27;3.27;;;2.97;;
15358;SDS011;7779;49.596;11.070;2023-07-09T08:11:54;3.50;;;3.00;;
15358;SDS011;7779;49.596;11.070;2023-07-09T08:14:20;3.90;;;2.83;;
15358;SDS011;7779;49.596;11.070;2023-07-09T08:16:46;3.13;;;2.60;;
15358;SDS011;7779;49.596;11.070;2023-07-09T08:19:13;3.90;;;2.90;;
15358;SDS011;7779;49.596;11.070;2023-07-09T08:21:39;2.97;;;2.73;;
15358;SDS011;7779;49.596;11.070;2023-07-09T08:24:04;3.17;;;2.87;;
15358;SDS011;7779;49.596;11.070;2023-07-09T08:26:30;4.03;;;3.30;;
15358;SDS011;7779;49.596;11.070;2023-07-09T08:28:57;3.33;;;3.03;;
15358;SDS011;7779;49.596;11.070;2023-07-09T08:31:23;3.40;;;3.10;;
15358;SDS011;7779;49.596;11.070;2023-07-09T08:33:49;3.60;;;3.30;;
15358;SDS011;7779;49.596;11.070;2023-07-09T08:36:15;3.37;;;2.87;;
15358;SDS011;7779;49.596;11.070;2023-07-09T08:38:41;2.90;;;2.70;;
15358;SDS011;7779;49.596;11.070;2023-07-09T08:44:14;4.00;;;3.00;;
15358;SDS011;7779;49.596;11.070;2023-07-09T08:47:15;4.30;;;2.80;;
15358;SDS011;7779;49.596;11.070;2023-07-09T08:49:55;2.70;;;2.40;;
15358;SDS011;7779;49.596;11.070;2023-07-09T08:55:09;3.20;;;2.70;;
15358;SDS011;7779;49.596;11.070;2023-07-09T08:57:43;3.07;;;2.77;;
15358;SDS011;7779;49.596;11.070;2023-07-09T09:02:51;3.47;;;2.90;;
15358;SDS011;7779;49.596;11.070;2023-07-09T09:05:24;3.03;;;2.67;;
15358;SDS011;7779;49.596;11.070;2023-07-09T09:07:55;5.27;;;2.80;;
15358;SDS011;7779;49.596;11.070;2023-07-09T09:10:48;2.70;;;2.50;;
15358;SDS011;7779;49.596;11.070;2023-07-09T09:13:45;4.13;;;2.30;;
15358;SDS011;7779;49.596;11.070;2023-07-09T09:16:17;2.97;;;2.67;;
15358;SDS011;7779;49.596;11.070;2023-07-09T09:18:55;2.77;;;2.57;;
15358;SDS011;7779;49.596;11.070;2023-07-09T09:21:27;3.17;;;2.87;;
15358;SDS011;7779;49.596;11.070;2023-07-09T09:24:02;3.40;;;2.57;;
15358;SDS011;7779;49.596;11.070;2023-07-09T09:26:59;3.67;;;3.00;;
15358;SDS011;7779;49.596;11.070;2023-07-09T09:29:25;3.23;;;2.60;;
15358;SDS011;7779;49.596;11.070;2023-07-09T09:31:52;2.93;;;2.60;;
15358;SDS011;7779;49.596;11.070;2023-07-09T09:34:22;3.23;;;2.40;;
15358;SDS011;7779;49.596;11.070;2023-07-09T09:36:52;4.37;;;2.60;;
15358;SDS011;7779;49.596;11.070;2023-07-09T09:39:19;2.77;;;2.53;;
15358;SDS011;7779;49.596;11.070;2023-07-09T09:41:47;3.00;;;2.60;;
15358;SDS011;7779;49.596;11.070;2023-07-09T09:44:20;2.57;;;2.37;;
15358;SDS011;7779;49.596;11.070;2023-07-09T09:46:56;2.90;;;2.50;;
15358;SDS011;7779;49.596;11.070;2023-07-09T09:49:22;2.90;;;2.60;;
15358;SDS011;7779;49.596;11.070;2023-07-09T09:51:49;2.43;;;2.23;;
15358;SDS011;7779;49.596;11.070;2023-07-09T09:54:18;2.93;;;2.27;;
15358;SDS011;7779;49.596;11.070;2023-07-09T09:56:49;3.47;;;2.20;;
15358;SDS011;7779;49.596;11.070;2023-07-09T09:59:21;3.10;;;2.80;;
15358;SDS011;7779;49.596;11.070;2023-07-09T10:01:56;3.27;;;2.60;;
15358;SDS011;7779;49.596;11.070;2023-07-09T10:04:25;3.67;;;2.63;;
15358;SDS011;7779;49.596;11.070;2023-07-09T10:06:53;2.87;;;2.60;;
15358;SDS011;7779;49.596;11.070;2023-07-09T10:09:35;3.00;;;2.70;;
15358;SDS011;7779;49.596;11.070;2023-07-09T10:12:16;3.03;;;2.63;;
15358;SDS011;7779;49.596;11.070;2023-07-09T10:21:31;4.97;;;3.40;;
15358;SDS011;7779;49.596;11.070;2023-07-09T10:27:43;3.20;;;2.90;;
15358;SDS011;7779;49.596;11.070;2023-07-09T10:32:48;4.30;;;2.77;;
15358;SDS011;7779;49.596;11.070;2023-07-09T10:35:52;4.30;;;2.83;;
15358;SDS011;7779;49.596;11.070;2023-07-09T10:38:33;5.40;;;2.77;;
15358;SDS011;7779;49.596;11.070;2023-07-09T10:41:31;3.50;;;2.80;;
15358;SDS011;7779;49.596;11.070;2023-07-09T10:44:06;3.37;;;2.73;;
15358;SDS011;7779;49.596;11.070;2023-07-09T10:46:38;2.77;;;2.50;;
15358;SDS011;7779;49.596;11.070;2023-07-09T10:49:11;3.43;;;2.50;;
15358;SDS011;7779;49.596;11.070;2023-07-09T10:51:49;2.90;;;2.60;;
15358;SDS011;7779;49.596;11.070;2023-07-09T10:54:31;3.30;;;2.70;;
15358;SDS011;7779;49.596;11.070;2023-07-09T10:57:16;3.10;;;2.80;;
15358;SDS011;7779;49.596;11.070;2023-07-09T10:59:50;3.67;;;2.47;;
15358;SDS011;7779;49.596;11.070;2023-07-09T11:02:25;3.93;;;2.43;;
15358;SDS011;7779;49.596;11.070;2023-07-09T11:04:58;2.47;;;2.23;;
15358;SDS011;7779;49.596;11.070;2023-07-09T11:07:33;2.80;;;2.50;;
15358;SDS011;7779;49.596;11.070;2023-07-09T11:10:17;3.80;;;2.70;;
15358;SDS011;7779;49.596;11.070;2023-07-09T11:13:10;3.07;;;2.50;;
15358;SDS011;7779;49.596;11.070;2023-07-09T11:15:49;2.90;;;2.43;;
15358;SDS011;7779;49.596;11.070;2023-07-09T11:18:26;2.93;;;2.40;;
15358;SDS011;7779;49.596;11.070;2023-07-09T11:29:13;2.43;;;2.20;;
15358;SDS011;7779;49.596;11.070;2023-07-09T11:31:43;3.63;;;2.60;;
15358;SDS011;7779;49.596;11.070;2023-07-09T11:36:52;2.63;;;2.43;;
15358;SDS011;7779;49.596;11.070;2023-07-09T11:44:49;5.13;;;2.93;;
15358;SDS011;7779;49.596;11.070;2023-07-09T11:47:37;3.00;;;2.50;;
15358;SDS011;7779;49.596;11.070;2023-07-09T11:50:16;3.10;;;2.80;;
15358;SDS011;7779;49.596;11.070;2023-07-09T11:52:58;3.00;;;2.70;;
15358;SDS011;7779;49.596;11.070;2023-07-09T11:58:07;2.83;;;2.63;;
15358;SDS011;7779;49.596;11.070;2023-07-09T12:00:40;2.77;;;2.53;;
15358;SDS011;7779;49.596;11.070;2023-07-09T12:03:14;3.83;;;2.80;;
15358;SDS011;7779;49.596;11.070;2023-07-09T12:05:49;3.43;;;2.53;;
15358;SDS011;7779;49.596;11.070;2023-07-09T12:08:38;3.00;;;2.80;;
15358;SDS011;7779;49.596;11.070;2023-07-09T12:11:17;3.20;;;2.90;;
15358;SDS011;7779;49.596;11.070;2023-07-09T12:13:51;2.83;;;2.50;;
15358;SDS011;7779;49.596;11.070;2023-07-09T12:16:19;3.40;;;2.70;;
15358;SDS011;7779;49.596;11.070;2023-07-09T12:18:55;3.27;;;2.63;;
15358;SDS011;7779;49.596;11.070;2023-07-09T12:21:21;2.87;;;2.57;;
15358;SDS011;7779;49.596;11.070;2023-07-09T12:23:49;4.57;;;2.97;;
15358;SDS011;7779;49.596;11.070;2023-07-09T12:26:16;3.97;;;2.70;;
15358;SDS011;7779;49.596;11.070;2023-07-09T12:28:54;3.57;;;2.60;;
15358;SDS011;7779;49.596;11.070;2023-07-09T12:31:26;2.80;;;2.50;;
15358;SDS011;7779;49.596;11.070;2023-07-09T12:33:56;2.90;;;2.60;;
15358;SDS011;7779;49.596;11.070;2023-07-09T12:36:24;3.30;;;2.80;;
15358;SDS011;7779;49.596;11.070;2023-07-09T12:38:53;2.80;;;2.40;;
15358;SDS011;7779;49.596;11.070;2023-07-09T12:41:36;2.97;;;2.50;;
15358;SDS011;7779;49.596;11.070;2023-07-09T12:44:06;3.80;;;2.70;;
15358;SDS011;7779;49.596;11.070;2023-07-09T12:46:44;3.03;;;2.37;;
15358;SDS011;7779;49.596;11.070;2023-07-09T12:49:20;2.90;;;2.60;;
15358;SDS011;7779;49.596;11.070;2023-07-09T12:51:55;4.50;;;2.80;;
15358;SDS011;7779;49.596;11.070;2023-07-09T12:54:22;3.00;;;2.57;;
15358;SDS011;7779;49.596;11.070;2023-07-09T12:56:53;3.00;;;2.70;;
15358;SDS011;7779;49.596;11.070;2023-07-09T12:59:21;2.90;;;2.60;;
15358;SDS011;7779;49.596;11.070;2023-07-09T13:02:19;2.90;;;2.60;;
15358;SDS011;7779;49.596;11.070;2023-07-09T13:04:49;2.60;;;2.30;;
15358;SDS011;7779;49.596;11.070;2023-07-09T13:09:50;3.03;;;2.73;;
15358;SDS011;7779;49.596;11.070;2023-07-09T13:12:19;3.37;;;2.63;;
15358;SDS011;7779;49.596;11.070;2023-07-09T13:14:53;4.07;;;2.70;;
15358;SDS011;7779;49.596;11.070;2023-07-09T13:17:20;3.97;;;2.67;;
15358;SDS011;7779;49.596;11.070;2023-07-09T13:19:46;4.23;;;2.80;;
15358;SDS011;7779;49.596;11.070;2023-07-09T13:22:16;4.17;;;2.90;;
15358;SDS011;7779;49.596;11.070;2023-07-09T13:24:44;3.17;;;2.70;;
15358;SDS011;7779;49.596;11.070;2023-07-09T13:27:11;3.20;;;2.90;;
15358;SDS011;7779;49.596;11.070;2023-07-09T13:29:39;3.40;;;2.73;;
15358;SDS011;7779;49.596;11.070;2023-07-09T13:32:11;3.27;;;2.63;;
15358;SDS011;7779;49.596;11.070;2023-07-09T13:34:40;3.20;;;2.83;;
15358;SDS011;7779;49.596;11.070;2023-07-09T13:37:11;4.60;;;2.70;;
15358;SDS011;7779;49.596;11.070;2023-07-09T13:39:41;3.63;;;3.07;;
15358;SDS011;7779;49.596;11.070;2023-07-09T13:42:10;3.20;;;2.47;;
15358;SDS011;7779;49.596;11.070;2023-07-09T13:44:39;3.63;;;2.90;;
15358;SDS011;7779;49.596;11.070;2023-07-09T13:47:14;3.10;;;2.73;;
15358;SDS011;7779;49.596;11.070;2023-07-09T13:49:43;2.67;;;2.47;;
15358;SDS011;7779;49.596;11.070;2023-07-09T13:52:15;2.80;;;2.60;;
15358;SDS011;7779;49.596;11.070;2023-07-09T13:54:44;2.97;;;2.60;;
15358;SDS011;7779;49.596;11.070;2023-07-09T13:57:16;3.17;;;2.50;;
15358;SDS011;7779;49.596;11.070;2023-07-09T13:59:46;3.10;;;2.80;;
15358;SDS011;7779;49.596;11.070;2023-07-09T14:02:23;3.07;;;2.60;;
15358;SDS011;7779;49.596;11.070;2023-07-09T14:04:59;3.80;;;2.80;;
15358;SDS011;7779;49.596;11.070;2023-07-09T14:07:30;3.27;;;2.97;;
15358;SDS011;7779;49.596;11.070;2023-07-09T14:10:00;2.83;;;2.53;;
15358;SDS011;7779;49.596;11.070;2023-07-09T14:12:29;3.07;;;2.70;;
15358;SDS011;7779;49.596;11.070;2023-07-09T14:14:56;3.40;;;3.10;;
15358;SDS011;7779;49.596;11.070;2023-07-09T14:17:26;3.10;;;2.80;;
15358;SDS011;7779;49.596;11.070;2023-07-09T14:19:52;3.73;;;2.70;;
15358;SDS011;7779;49.596;11.070;2023-07-09T14:24:58;3.47;;;2.73;;
15358;SDS011;7779;49.596;11.070;2023-07-09T14:27:24;4.33;;;2.60;;
15358;SDS011;7779;49.596;11.070;2023-07-09T14:29:51;2.80;;;2.50;;
15358;SDS011;7779;49.596;11.070;2023-07-09T14:34:59;3.27;;;2.90;;
15358;SDS011;7779;49.596;11.070;2023-07-09T14:37:27;3.83;;;2.90;;
15358;SDS011;7779;49.596;11.070;2023-07-09T14:39:53;3.20;;;2.67;;
15358;SDS011;7779;49.596;11.070;2023-07-09T14:42:19;2.60;;;2.20;;
15358;SDS011;7779;49.596;11.070;2023-07-09T14:44:47;3.83;;;2.70;;
15358;SDS011;7779;49.596;11.070;2023-07-09T14:47:16;2.90;;;2.63;;
15358;SDS011;7779;49.596;11.070;2023-07-09T14:49:46;3.63;;;2.63;;
15358;SDS011;7779;49.596;11.070;2023-07-09T14:52:13;3.77;;;2.57;;
15358;SDS011;7779;49.596;11.070;2023-07-09T14:54:43;3.63;;;2.50;;
15358;SDS011;7779;49.596;11.070;2023-07-09T14:57:22;3.20;;;2.70;;
15358;SDS011;7779;49.596;11.070;2023-07-09T14:59:51;3.37;;;2.90;;
15358;SDS011;7779;49.596;11.070;2023-07-09T15:02:30;3.60;;;2.53;;
15358;SDS011;7779;49.596;11.070;2023-07-09T15:05:05;3.43;;;2.63;;
15358;SDS011;7779;49.596;11.070;2023-07-09T15:07:37;2.87;;;2.37;;
15358;SDS011;7779;49.596;11.070;2023-07-09T15:10:03;2.97;;;2.47;;
15358;SDS011;7779;49.596;11.070;2023-07-09T15:12:33;3.30;;;2.80;;
15358;SDS011;7779;49.596;11.070;2023-07-09T15:17:56;3.10;;;2.60;;
15358;SDS011;7779;49.596;11.070;2023-07-09T15:20:26;2.87;;;2.57;;
15358;SDS011;7779;49.596;11.070;2023-07-09T15:22:58;2.97;;;2.67;;
15358;SDS011;7779;49.596;11.070;2023-07-09T15:25:26;3.73;;;2.70;;
15358;SDS011;7779;49.596;11.070;2023-07-09T15:27:55;2.90;;;2.47;;
15358;SDS011;7779;49.596;11.070;2023-07-09T15:30:23;2.77;;;2.53;;
15358;SDS011;7779;49.596;11.070;2023-07-09T15:32:51;2.90;;;2.60;;
15358;SDS011;7779;49.596;11.070;2023-07-09T15:35:22;2.80;;;2.40;;
15358;SDS011;7779;49.596;11.070;2023-07-09T15:37:50;4.20;;;2.60;;
15358;SDS011;7779;49.596;11.070;2023-07-09T15:40:26;3.10;;;2.60;;
15358;SDS011;7779;49.596;11.070;2023-07-09T15:42:58;3.30;;;2.50;;
15358;SDS011;7779;49.596;11.070;2023-07-09T15:45:33;4.40;;;2.53;;
15358;SDS011;7779;49.596;11.070;2023-07-09T15:48:06;3.30;;;2.93;;
15358;SDS011;7779;49.596;11.070;2023-07-09T15:50:45;2.90;;;2.60;;
15358;SDS011;7779;49.596;11.070;2023-07-09T15:53:11;4.03;;;2.77;;
15358;SDS011;7779;49.596;11.070;2023-07-09T15:55:37;2.80;;;2.50;;
15358;SDS011;7779;49.596;11.070;2023-07-09T15:58:03;3.20;;;2.90;;
15358;SDS011;7779;49.596;11.070;2023-07-09T16:00:29;2.93;;;2.73;;
15358;SDS011;7779;49.596;11.070;2023-07-09T16:02:58;3.37;;;2.60;;
15358;SDS011;7779;49.596;11.070;2023-07-09T16:05:26;5.83;;;2.60;;